sensor_id;sensor_type;location;lat;lon;timestamp;P1;durP1;ratioP1;P2;durP2;ratioP2
20114;SDS011;10218;42.874;25.320;2023-02-12T00:01:18;48.53;;;21.97;;
20114;SDS011;10218;42.874;25.320;2023-02-12T00:03:46;45.70;;;20.73;;
20114;SDS011;10218;42.874;25.320;2023-02-12T00:06:14;48.77;;;20.07;;
20114;SDS011;10218;42.874;25.320;2023-02-12T00:08:42;33.23;;;15.33;;
20114;SDS011;10218;42.874;25.320;2023-02-12T00:11:13;33.67;;;13.13;;
20114;SDS011;10218;42.874;25.320;2023-02-12T00:13:45;49.13;;;19.73;;
20114;SDS011;10218;42.874;25.320;2023-02-12T00:16:14;40.20;;;15.97;;
20114;SDS011;10218;42.874;25.320;2023-02-12T00:18:43;40.40;;;17.77;;
20114;SDS011;10218;42.874;25.320;2023-02-12T00:21:11;41.23;;;18.50;;
20114;SDS011;10218;42.874;25.320;2023-02-12T00:23:39;45.17;;;19.07;;
20114;SDS011;10218;42.874;25.320;2023-02-12T00:26:07;44.60;;;18.63;;
20114;SDS011;10218;42.874;25.320;2023-02-12T00:28:37;40.50;;;18.17;;
20114;SDS011;10218;42.874;25.320;2023-02-12T00:31:06;43.43;;;18.60;;
20114;SDS011;10218;42.874;25.320;2023-02-12T00:33:37;43.03;;;17.87;;
20114;SDS011;10218;42.874;25.320;2023-02-12T00:36:05;42.13;;;18.90;;
20114;SDS011;10218;42.874;25.320;2023-02-12T00:38:33;41.53;;;19.43;;
20114;SDS011;10218;42.874;25.320;2023-02-12T00:41:01;47.33;;;20.60;;
20114;SDS011;10218;42.874;25.320;2023-02-12T00:43:29;39.60;;;17.80;;
20114;SDS011;10218;42.874;25.320;2023-02-12T00:45:56;40.73;;;17.53;;
20114;SDS011;10218;42.874;25.320;2023-02-12T00:48:25;34.47;;;14.13;;
20114;SDS011;10218;42.874;25.320;2023-02-12T00:50:52;39.00;;;15.67;;
20114;SDS011;10218;42.874;25.320;2023-02-12T00:53:19;30.73;;;12.70;;
20114;SDS011;10218;42.874;25.320;2023-02-12T00:55:47;26.43;;;13.63;;
20114;SDS011;10218;42.874;25.320;2023-02-12T00:58:15;28.33;;;13.17;;
20114;SDS011;10218;42.874;25.320;2023-02-12T01:00:44;37.17;;;15.83;;
20114;SDS011;10218;42.874;25.320;2023-02-12T01:03:12;34.60;;;13.80;;
20114;SDS011;10218;42.874;25.320;2023-02-12T01:05:40;39.20;;;16.33;;
20114;SDS011;10218;42.874;25.320;2023-02-12T01:08:07;35.30;;;15.50;;
20114;SDS011;10218;42.874;25.320;2023-02-12T01:10:36;38.43;;;17.70;;
20114;SDS011;10218;42.874;25.320;2023-02-12T01:13:03;41.70;;;17.53;;
20114;SDS011;10218;42.874;25.320;2023-02-12T01:15:30;41.20;;;18.40;;
20114;SDS011;10218;42.874;25.320;2023-02-12T01:17:58;43.70;;;17.90;;
20114;SDS011;10218;42.874;25.320;2023-02-12T01:20:25;40.83;;;19.73;;
20114;SDS011;10218;42.874;25.320;2023-02-12T01:22:52;42.00;;;20.03;;
20114;SDS011;10218;42.874;25.320;2023-02-12T01:25:19;46.17;;;21.87;;
20114;SDS011;10218;42.874;25.320;2023-02-12T01:27:48;48.73;;;21.50;;
20114;SDS011;10218;42.874;25.320;2023-02-12T01:30:18;46.70;;;18.97;;
20114;SDS011;10218;42.874;25.320;2023-02-12T01:32:49;36.37;;;17.87;;
20114;SDS011;10218;42.874;25.320;2023-02-12T01:35:16;35.33;;;16.47;;
20114;SDS011;10218;42.874;25.320;2023-02-12T01:37:45;37.50;;;16.67;;
20114;SDS011;10218;42.874;25.320;2023-02-12T01:40:13;40.50;;;16.90;;
20114;SDS011;10218;42.874;25.320;2023-02-12T01:42:41;41.90;;;15.83;;
20114;SDS011;10218;42.874;25.320;2023-02-12T01:47:42;42.70;;;18.90;;
20114;SDS011;10218;42.874;25.320;2023-02-12T01:50:12;37.47;;;17.97;;
20114;SDS011;10218;42.874;25.320;2023-02-12T01:52:44;38.20;;;16.77;;
20114;SDS011;10218;42.874;25.320;2023-02-12T01:55:17;24.27;;;11.40;;
20114;SDS011;10218;42.874;25.320;2023-02-12T01:57:46;26.47;;;11.60;;
20114;SDS011;10218;42.874;25.320;2023-02-12T02:00:15;25.87;;;12.00;;
20114;SDS011;10218;42.874;25.320;2023-02-12T02:02:47;27.33;;;13.63;;
20114;SDS011;10218;42.874;25.320;2023-02-12T02:05:22;25.60;;;11.83;;
20114;SDS011;10218;42.874;25.320;2023-02-12T02:08:00;27.67;;;11.80;;
20114;SDS011;10218;42.874;25.320;2023-02-12T02:10:28;33.90;;;13.43;;
20114;SDS011;10218;42.874;25.320;2023-02-12T02:12:56;24.77;;;11.83;;
20114;SDS011;10218;42.874;25.320;2023-02-12T02:15:43;28.87;;;11.20;;
20114;SDS011;10218;42.874;25.320;2023-02-12T02:18:19;38.67;;;16.03;;
20114;SDS011;10218;42.874;25.320;2023-02-12T02:35:27;28.60;;;13.97;;
20114;SDS011;10218;42.874;25.320;2023-02-12T02:43:54;29.53;;;13.93;;
20114;SDS011;10218;42.874;25.320;2023-02-12T02:46:23;32.50;;;14.50;;
20114;SDS011;10218;42.874;25.320;2023-02-12T02:49:06;32.50;;;14.77;;
20114;SDS011;10218;42.874;25.320;2023-02-12T02:51:42;30.90;;;14.37;;
20114;SDS011;10218;42.874;25.320;2023-02-12T02:54:16;32.23;;;14.10;;
20114;SDS011;10218;42.874;25.320;2023-02-12T02:56:49;34.07;;;15.30;;
20114;SDS011;10218;42.874;25.320;2023-02-12T02:59:31;32.70;;;14.70;;
20114;SDS011;10218;42.874;25.320;2023-02-12T03:02:08;28.20;;;12.93;;
20114;SDS011;10218;42.874;25.320;2023-02-12T03:04:45;30.27;;;15.60;;
20114;SDS011;10218;42.874;25.320;2023-02-12T03:07:28;33.23;;;14.97;;
20114;SDS011;10218;42.874;25.320;2023-02-12T03:10:13;37.90;;;16.30;;
20114;SDS011;10218;42.874;25.320;2023-02-12T03:12:48;33.07;;;14.63;;
20114;SDS011;10218;42.874;25.320;2023-02-12T03:15:23;33.60;;;16.07;;
20114;SDS011;10218;42.874;25.320;2023-02-12T03:17:52;40.83;;;16.53;;
20114;SDS011;10218;42.874;25.320;2023-02-12T03:20:24;40.57;;;17.37;;
20114;SDS011;10218;42.874;25.320;2023-02-12T03:23:11;41.10;;;16.50;;
20114;SDS011;10218;42.874;25.320;2023-02-12T03:25:53;49.47;;;19.17;;
20114;SDS011;10218;42.874;25.320;2023-02-12T03:28:27;34.93;;;16.13;;
20114;SDS011;10218;42.874;25.320;2023-02-12T03:36:09;38.80;;;17.27;;
20114;SDS011;10218;42.874;25.320;2023-02-12T03:38:53;39.00;;;16.93;;
20114;SDS011;10218;42.874;25.320;2023-02-12T03:41:24;37.90;;;17.43;;
20114;SDS011;10218;42.874;25.320;2023-02-12T03:44:09;37.00;;;16.87;;
20114;SDS011;10218;42.874;25.320;2023-02-12T03:46:49;33.03;;;15.63;;
20114;SDS011;10218;42.874;25.320;2023-02-12T03:51:53;24.53;;;12.50;;
20114;SDS011;10218;42.874;25.320;2023-02-12T03:54:21;25.83;;;12.23;;
20114;SDS011;10218;42.874;25.320;2023-02-12T03:59:47;21.73;;;11.43;;
20114;SDS011;10218;42.874;25.320;2023-02-12T04:02:15;24.03;;;11.93;;
20114;SDS011;10218;42.874;25.320;2023-02-12T04:04:44;25.60;;;13.43;;
20114;SDS011;10218;42.874;25.320;2023-02-12T04:07:12;24.73;;;12.37;;
20114;SDS011;10218;42.874;25.320;2023-02-12T04:09:41;22.83;;;12.27;;
20114;SDS011;10218;42.874;25.320;2023-02-12T04:15:00;27.37;;;12.80;;
20114;SDS011;10218;42.874;25.320;2023-02-12T04:18:00;32.03;;;15.17;;
20114;SDS011;10218;42.874;25.320;2023-02-12T04:23:24;31.70;;;15.63;;
20114;SDS011;10218;42.874;25.320;2023-02-12T04:26:23;37.63;;;17.70;;
20114;SDS011;10218;42.874;25.320;2023-02-12T04:31:48;36.50;;;17.27;;
20114;SDS011;10218;42.874;25.320;2023-02-12T04:36:56;36.90;;;16.60;;
20114;SDS011;10218;42.874;25.320;2023-02-12T04:39:30;31.33;;;15.27;;
20114;SDS011;10218;42.874;25.320;2023-02-12T04:42:01;25.90;;;12.67;;
20114;SDS011;10218;42.874;25.320;2023-02-12T04:44:30;28.63;;;12.47;;
20114;SDS011;10218;42.874;25.320;2023-02-12T04:46:59;26.83;;;12.70;;
20114;SDS011;10218;42.874;25.320;2023-02-12T04:49:27;26.07;;;12.53;;
20114;SDS011;10218;42.874;25.320;2023-02-12T04:51:54;26.17;;;12.53;;
20114;SDS011;10218;42.874;25.320;2023-02-12T04:54:22;24.47;;;11.60;;
20114;SDS011;10218;42.874;25.320;2023-02-12T04:56:50;31.23;;;15.07;;
20114;SDS011;10218;42.874;25.320;2023-02-12T04:59:17;29.80;;;12.77;;
20114;SDS011;10218;42.874;25.320;2023-02-12T05:01:45;25.00;;;12.43;;
20114;SDS011;10218;42.874;25.320;2023-02-12T05:04:13;26.37;;;12.20;;
20114;SDS011;10218;42.874;25.320;2023-02-12T05:06:41;26.63;;;11.90;;
20114;SDS011;10218;42.874;25.320;2023-02-12T05:09:14;27.53;;;12.87;;
20114;SDS011;10218;42.874;25.320;2023-02-12T05:11:43;28.33;;;13.40;;
20114;SDS011;10218;42.874;25.320;2023-02-12T05:14:11;37.03;;;16.03;;
20114;SDS011;10218;42.874;25.320;2023-02-12T05:16:38;75.33;;;27.50;;
20114;SDS011;10218;42.874;25.320;2023-02-12T05:19:05;55.90;;;22.27;;
20114;SDS011;10218;42.874;25.320;2023-02-12T05:21:35;79.37;;;28.67;;
20114;SDS011;10218;42.874;25.320;2023-02-12T05:24:03;184.83;;;57.30;;
20114;SDS011;10218;42.874;25.320;2023-02-12T05:26:31;125.60;;;41.10;;
20114;SDS011;10218;42.874;25.320;2023-02-12T05:28:59;104.17;;;35.47;;
20114;SDS011;10218;42.874;25.320;2023-02-12T05:31:26;147.07;;;48.20;;
20114;SDS011;10218;42.874;25.320;2023-02-12T05:33:53;103.90;;;36.37;;
20114;SDS011;10218;42.874;25.320;2023-02-12T05:36:21;88.60;;;33.93;;
20114;SDS011;10218;42.874;25.320;2023-02-12T05:38:50;105.50;;;38.40;;
20114;SDS011;10218;42.874;25.320;2023-02-12T05:41:20;124.07;;;47.23;;
20114;SDS011;10218;42.874;25.320;2023-02-12T05:43:49;136.13;;;54.97;;
20114;SDS011;10218;42.874;25.320;2023-02-12T05:46:19;132.50;;;51.47;;
20114;SDS011;10218;42.874;25.320;2023-02-12T05:48:47;136.00;;;56.33;;
20114;SDS011;10218;42.874;25.320;2023-02-12T05:51:16;102.77;;;47.20;;
20114;SDS011;10218;42.874;25.320;2023-02-12T05:53:48;78.90;;;38.37;;
20114;SDS011;10218;42.874;25.320;2023-02-12T05:56:20;55.40;;;26.60;;
20114;SDS011;10218;42.874;25.320;2023-02-12T05:58:53;50.80;;;22.43;;
20114;SDS011;10218;42.874;25.320;2023-02-12T06:01:24;49.60;;;23.80;;
20114;SDS011;10218;42.874;25.320;2023-02-12T06:03:53;41.87;;;22.03;;
20114;SDS011;10218;42.874;25.320;2023-02-12T06:06:21;44.53;;;22.40;;
20114;SDS011;10218;42.874;25.320;2023-02-12T06:08:50;59.83;;;28.67;;
20114;SDS011;10218;42.874;25.320;2023-02-12T06:11:17;54.87;;;26.43;;
20114;SDS011;10218;42.874;25.320;2023-02-12T06:13:46;53.47;;;27.53;;
20114;SDS011;10218;42.874;25.320;2023-02-12T06:18:43;54.23;;;29.07;;
20114;SDS011;10218;42.874;25.320;2023-02-12T06:21:10;56.50;;;27.23;;
20114;SDS011;10218;42.874;25.320;2023-02-12T06:23:37;50.67;;;24.67;;
20114;SDS011;10218;42.874;25.320;2023-02-12T06:26:05;47.77;;;23.57;;
20114;SDS011;10218;42.874;25.320;2023-02-12T06:28:32;43.63;;;22.90;;
20114;SDS011;10218;42.874;25.320;2023-02-12T06:31:00;48.60;;;24.97;;
20114;SDS011;10218;42.874;25.320;2023-02-12T06:33:28;54.23;;;24.47;;
20114;SDS011;10218;42.874;25.320;2023-02-12T06:35:55;50.80;;;25.17;;
20114;SDS011;10218;42.874;25.320;2023-02-12T06:38:22;91.13;;;37.57;;
20114;SDS011;10218;42.874;25.320;2023-02-12T06:40:50;82.80;;;35.93;;
20114;SDS011;10218;42.874;25.320;2023-02-12T06:43:17;62.83;;;29.20;;
20114;SDS011;10218;42.874;25.320;2023-02-12T06:45:44;72.10;;;32.80;;
20114;SDS011;10218;42.874;25.320;2023-02-12T06:48:11;71.37;;;33.43;;
20114;SDS011;10218;42.874;25.320;2023-02-12T06:50:38;69.17;;;32.80;;
20114;SDS011;10218;42.874;25.320;2023-02-12T06:53:05;68.37;;;31.83;;
20114;SDS011;10218;42.874;25.320;2023-02-12T06:55:33;63.87;;;30.60;;
20114;SDS011;10218;42.874;25.320;2023-02-12T06:58:00;60.07;;;29.07;;
20114;SDS011;10218;42.874;25.320;2023-02-12T07:00:27;60.00;;;28.67;;
20114;SDS011;10218;42.874;25.320;2023-02-12T07:02:54;63.13;;;29.77;;
20114;SDS011;10218;42.874;25.320;2023-02-12T07:05:22;62.33;;;28.90;;
20114;SDS011;10218;42.874;25.320;2023-02-12T07:07:50;60.17;;;30.33;;
20114;SDS011;10218;42.874;25.320;2023-02-12T07:10:18;83.80;;;37.00;;
20114;SDS011;10218;42.874;25.320;2023-02-12T07:12:45;82.90;;;39.20;;
20114;SDS011;10218;42.874;25.320;2023-02-12T07:15:12;82.30;;;40.03;;
20114;SDS011;10218;42.874;25.320;2023-02-12T07:17:40;91.17;;;44.17;;
20114;SDS011;10218;42.874;25.320;2023-02-12T07:20:07;92.20;;;46.23;;
20114;SDS011;10218;42.874;25.320;2023-02-12T07:22:35;97.07;;;47.43;;
20114;SDS011;10218;42.874;25.320;2023-02-12T07:25:03;75.53;;;40.20;;
20114;SDS011;10218;42.874;25.320;2023-02-12T07:27:30;72.97;;;37.10;;
20114;SDS011;10218;42.874;25.320;2023-02-12T07:29:57;66.53;;;34.90;;
20114;SDS011;10218;42.874;25.320;2023-02-12T07:32:24;56.00;;;28.23;;
20114;SDS011;10218;42.874;25.320;2023-02-12T07:34:51;55.47;;;28.90;;
20114;SDS011;10218;42.874;25.320;2023-02-12T07:37:19;53.07;;;27.97;;
20114;SDS011;10218;42.874;25.320;2023-02-12T07:39:48;100.47;;;48.93;;
20114;SDS011;10218;42.874;25.320;2023-02-12T07:42:16;69.83;;;34.63;;
20114;SDS011;10218;42.874;25.320;2023-02-12T07:44:47;62.70;;;31.37;;
20114;SDS011;10218;42.874;25.320;2023-02-12T07:47:15;59.27;;;30.17;;
20114;SDS011;10218;42.874;25.320;2023-02-12T07:49:42;59.63;;;30.00;;
20114;SDS011;10218;42.874;25.320;2023-02-12T07:52:09;55.90;;;28.83;;
20114;SDS011;10218;42.874;25.320;2023-02-12T07:54:39;56.20;;;28.57;;
20114;SDS011;10218;42.874;25.320;2023-02-12T07:57:05;48.87;;;25.80;;
20114;SDS011;10218;42.874;25.320;2023-02-12T07:59:32;48.63;;;24.77;;
20114;SDS011;10218;42.874;25.320;2023-02-12T08:02:00;45.27;;;23.80;;
20114;SDS011;10218;42.874;25.320;2023-02-12T08:04:27;45.20;;;23.83;;
20114;SDS011;10218;42.874;25.320;2023-02-12T08:06:55;44.53;;;21.33;;
20114;SDS011;10218;42.874;25.320;2023-02-12T08:09:23;44.07;;;22.70;;
20114;SDS011;10218;42.874;25.320;2023-02-12T08:11:53;41.53;;;21.10;;
20114;SDS011;10218;42.874;25.320;2023-02-12T08:14:21;36.97;;;19.77;;
20114;SDS011;10218;42.874;25.320;2023-02-12T08:16:48;39.07;;;20.10;;
20114;SDS011;10218;42.874;25.320;2023-02-12T08:19:16;38.53;;;19.77;;
20114;SDS011;10218;42.874;25.320;2023-02-12T08:21:48;39.90;;;20.63;;
20114;SDS011;10218;42.874;25.320;2023-02-12T08:24:17;42.87;;;21.07;;
20114;SDS011;10218;42.874;25.320;2023-02-12T08:26:44;44.10;;;21.97;;
20114;SDS011;10218;42.874;25.320;2023-02-12T08:29:12;40.17;;;20.10;;
20114;SDS011;10218;42.874;25.320;2023-02-12T08:31:43;45.40;;;23.00;;
20114;SDS011;10218;42.874;25.320;2023-02-12T08:34:19;42.70;;;19.83;;
20114;SDS011;10218;42.874;25.320;2023-02-12T08:36:49;50.53;;;25.97;;
20114;SDS011;10218;42.874;25.320;2023-02-12T08:39:17;45.07;;;23.20;;
20114;SDS011;10218;42.874;25.320;2023-02-12T08:41:44;42.00;;;21.00;;
20114;SDS011;10218;42.874;25.320;2023-02-12T08:44:13;40.20;;;21.00;;
20114;SDS011;10218;42.874;25.320;2023-02-12T08:46:44;41.40;;;22.10;;
20114;SDS011;10218;42.874;25.320;2023-02-12T08:49:15;45.20;;;22.43;;
20114;SDS011;10218;42.874;25.320;2023-02-12T08:51:45;42.17;;;20.83;;
20114;SDS011;10218;42.874;25.320;2023-02-12T08:54:16;38.30;;;20.47;;
20114;SDS011;10218;42.874;25.320;2023-02-12T08:56:44;45.77;;;22.20;;
20114;SDS011;10218;42.874;25.320;2023-02-12T08:59:12;42.87;;;22.33;;
20114;SDS011;10218;42.874;25.320;2023-02-12T09:01:41;43.87;;;21.83;;
20114;SDS011;10218;42.874;25.320;2023-02-12T09:04:13;40.37;;;21.43;;
20114;SDS011;10218;42.874;25.320;2023-02-12T09:06:44;41.50;;;21.83;;
20114;SDS011;10218;42.874;25.320;2023-02-12T09:09:12;38.17;;;20.33;;
20114;SDS011;10218;42.874;25.320;2023-02-12T09:11:40;40.00;;;21.80;;
20114;SDS011;10218;42.874;25.320;2023-02-12T09:14:09;39.03;;;21.47;;
20114;SDS011;10218;42.874;25.320;2023-02-12T09:16:38;42.07;;;21.53;;
20114;SDS011;10218;42.874;25.320;2023-02-12T09:19:06;37.37;;;20.33;;
20114;SDS011;10218;42.874;25.320;2023-02-12T09:21:34;37.90;;;21.50;;
20114;SDS011;10218;42.874;25.320;2023-02-12T09:24:01;41.13;;;21.80;;
20114;SDS011;10218;42.874;25.320;2023-02-12T09:26:29;39.53;;;21.30;;
20114;SDS011;10218;42.874;25.320;2023-02-12T09:28:57;44.33;;;25.73;;
20114;SDS011;10218;42.874;25.320;2023-02-12T09:31:26;40.33;;;22.90;;
20114;SDS011;10218;42.874;25.320;2023-02-12T09:34:02;39.07;;;22.13;;
20114;SDS011;10218;42.874;25.320;2023-02-12T09:36:32;41.90;;;20.80;;
20114;SDS011;10218;42.874;25.320;2023-02-12T09:38:59;42.77;;;22.83;;
20114;SDS011;10218;42.874;25.320;2023-02-12T09:52:18;38.43;;;21.23;;
20114;SDS011;10218;42.874;25.320;2023-02-12T09:54:48;39.03;;;20.93;;
20114;SDS011;10218;42.874;25.320;2023-02-12T09:57:18;35.30;;;20.60;;
20114;SDS011;10218;42.874;25.320;2023-02-12T09:59:59;36.40;;;20.77;;
20114;SDS011;10218;42.874;25.320;2023-02-12T10:02:30;33.73;;;20.53;;
20114;SDS011;10218;42.874;25.320;2023-02-12T10:05:02;34.00;;;19.43;;
20114;SDS011;10218;42.874;25.320;2023-02-12T10:07:35;35.97;;;21.63;;
20114;SDS011;10218;42.874;25.320;2023-02-12T10:12:47;35.03;;;20.00;;
20114;SDS011;10218;42.874;25.320;2023-02-12T10:15:48;38.70;;;20.07;;
20114;SDS011;10218;42.874;25.320;2023-02-12T10:26:51;31.90;;;19.93;;
20114;SDS011;10218;42.874;25.320;2023-02-12T10:28:51;34.67;;;19.33;;
20114;SDS011;10218;42.874;25.320;2023-02-12T10:33:56;28.67;;;17.83;;
20114;SDS011;10218;42.874;25.320;2023-02-12T10:39:28;32.00;;;19.40;;
20114;SDS011;10218;42.874;25.320;2023-02-12T10:44:49;33.10;;;19.20;;
20114;SDS011;10218;42.874;25.320;2023-02-12T10:47:17;35.33;;;19.70;;
20114;SDS011;10218;42.874;25.320;2023-02-12T10:49:57;37.10;;;19.40;;
20114;SDS011;10218;42.874;25.320;2023-02-12T10:55:27;33.47;;;19.70;;
20114;SDS011;10218;42.874;25.320;2023-02-12T10:58:00;31.03;;;18.27;;
20114;SDS011;10218;42.874;25.320;2023-02-12T11:05:37;34.73;;;20.13;;
20114;SDS011;10218;42.874;25.320;2023-02-12T11:08:06;34.57;;;20.70;;
20114;SDS011;10218;42.874;25.320;2023-02-12T11:10:51;37.90;;;19.87;;
20114;SDS011;10218;42.874;25.320;2023-02-12T11:13:21;30.23;;;20.13;;
20114;SDS011;10218;42.874;25.320;2023-02-12T11:15:53;36.73;;;22.27;;
20114;SDS011;10218;42.874;25.320;2023-02-12T11:18:25;34.93;;;19.87;;
20114;SDS011;10218;42.874;25.320;2023-02-12T11:28:56;32.83;;;20.57;;
20114;SDS011;10218;42.874;25.320;2023-02-12T11:31:29;30.20;;;19.13;;
20114;SDS011;10218;42.874;25.320;2023-02-12T11:36:49;29.80;;;19.33;;
20114;SDS011;10218;42.874;25.320;2023-02-12T11:39:20;30.33;;;20.17;;
20114;SDS011;10218;42.874;25.320;2023-02-12T11:42:02;35.07;;;22.43;;
20114;SDS011;10218;42.874;25.320;2023-02-12T11:44:42;35.40;;;21.93;;
20114;SDS011;10218;42.874;25.320;2023-02-12T11:47:21;31.30;;;21.20;;
20114;SDS011;10218;42.874;25.320;2023-02-12T11:50:03;32.90;;;21.53;;
20114;SDS011;10218;42.874;25.320;2023-02-12T11:52:35;32.73;;;21.27;;
20114;SDS011;10218;42.874;25.320;2023-02-12T11:55:18;34.40;;;21.17;;
20114;SDS011;10218;42.874;25.320;2023-02-12T11:57:52;38.63;;;23.00;;
20114;SDS011;10218;42.874;25.320;2023-02-12T12:00:27;35.50;;;21.50;;
20114;SDS011;10218;42.874;25.320;2023-02-12T12:03:15;35.13;;;22.20;;
20114;SDS011;10218;42.874;25.320;2023-02-12T12:05:51;41.33;;;26.87;;
20114;SDS011;10218;42.874;25.320;2023-02-12T12:08:27;46.57;;;28.00;;
20114;SDS011;10218;42.874;25.320;2023-02-12T12:11:13;36.20;;;22.17;;
20114;SDS011;10218;42.874;25.320;2023-02-12T12:13:46;35.10;;;23.07;;
20114;SDS011;10218;42.874;25.320;2023-02-12T12:16:32;38.77;;;23.43;;
20114;SDS011;10218;42.874;25.320;2023-02-12T12:19:27;33.33;;;21.83;;
20114;SDS011;10218;42.874;25.320;2023-02-12T12:22:28;31.00;;;20.63;;
20114;SDS011;10218;42.874;25.320;2023-02-12T12:25:14;33.83;;;21.77;;
20114;SDS011;10218;42.874;25.320;2023-02-12T12:33:18;35.27;;;22.97;;
20114;SDS011;10218;42.874;25.320;2023-02-12T13:09:16;42.57;;;25.43;;
20114;SDS011;10218;42.874;25.320;2023-02-12T13:12:11;47.93;;;29.63;;
20114;SDS011;10218;42.874;25.320;2023-02-12T13:32:01;38.57;;;23.70;;
20114;SDS011;10218;42.874;25.320;2023-02-12T13:34:33;35.50;;;22.67;;
20114;SDS011;10218;42.874;25.320;2023-02-12T13:37:03;42.27;;;26.73;;
20114;SDS011;10218;42.874;25.320;2023-02-12T13:39:39;44.33;;;28.33;;
20114;SDS011;10218;42.874;25.320;2023-02-12T13:47:49;41.70;;;25.77;;
20114;SDS011;10218;42.874;25.320;2023-02-12T13:51:00;46.40;;;27.03;;
20114;SDS011;10218;42.874;25.320;2023-02-12T13:53:45;44.03;;;27.20;;
20114;SDS011;10218;42.874;25.320;2023-02-12T13:56:37;44.70;;;26.00;;
20114;SDS011;10218;42.874;25.320;2023-02-12T14:04:54;42.30;;;25.53;;
20114;SDS011;10218;42.874;25.320;2023-02-12T14:10:24;66.90;;;36.70;;
20114;SDS011;10218;42.874;25.320;2023-02-12T14:13:23;57.23;;;31.67;;
20114;SDS011;10218;42.874;25.320;2023-02-12T14:15:54;52.30;;;31.23;;
20114;SDS011;10218;42.874;25.320;2023-02-12T14:18:34;72.97;;;39.83;;
20114;SDS011;10218;42.874;25.320;2023-02-12T14:23:39;79.00;;;43.77;;
20114;SDS011;10218;42.874;25.320;2023-02-12T14:26:12;74.33;;;42.67;;
20114;SDS011;10218;42.874;25.320;2023-02-12T14:39:26;58.20;;;34.23;;
20114;SDS011;10218;42.874;25.320;2023-02-12T14:47:03;51.30;;;29.87;;
20114;SDS011;10218;42.874;25.320;2023-02-12T14:49:43;54.23;;;29.87;;
20114;SDS011;10218;42.874;25.320;2023-02-12T14:52:21;55.33;;;31.77;;
20114;SDS011;10218;42.874;25.320;2023-02-12T14:54:53;53.27;;;29.90;;
20114;SDS011;10218;42.874;25.320;2023-02-12T14:57:36;56.50;;;33.13;;
20114;SDS011;10218;42.874;25.320;2023-02-12T15:02:43;57.53;;;32.97;;
20114;SDS011;10218;42.874;25.320;2023-02-12T15:05:15;55.90;;;32.57;;
20114;SDS011;10218;42.874;25.320;2023-02-12T15:07:58;63.10;;;36.07;;
20114;SDS011;10218;42.874;25.320;2023-02-12T15:10:36;62.77;;;35.23;;
20114;SDS011;10218;42.874;25.320;2023-02-12T15:13:15;60.43;;;34.20;;
20114;SDS011;10218;42.874;25.320;2023-02-12T15:15:52;56.30;;;31.93;;
20114;SDS011;10218;42.874;25.320;2023-02-12T15:18:47;61.77;;;33.50;;
20114;SDS011;10218;42.874;25.320;2023-02-12T15:26:29;61.03;;;34.57;;
20114;SDS011;10218;42.874;25.320;2023-02-12T15:28:59;92.50;;;44.73;;
20114;SDS011;10218;42.874;25.320;2023-02-12T15:31:27;110.67;;;54.87;;
20114;SDS011;10218;42.874;25.320;2023-02-12T15:33:57;94.60;;;47.33;;
20114;SDS011;10218;42.874;25.320;2023-02-12T15:36:27;92.37;;;50.67;;
20114;SDS011;10218;42.874;25.320;2023-02-12T15:39:02;86.73;;;46.90;;
20114;SDS011;10218;42.874;25.320;2023-02-12T15:41:37;89.63;;;49.20;;
20114;SDS011;10218;42.874;25.320;2023-02-12T15:46:52;116.10;;;54.90;;
20114;SDS011;10218;42.874;25.320;2023-02-12T15:49:30;101.37;;;52.23;;
20114;SDS011;10218;42.874;25.320;2023-02-12T15:52:03;117.83;;;55.93;;
20114;SDS011;10218;42.874;25.320;2023-02-12T15:54:35;113.50;;;51.73;;
20114;SDS011;10218;42.874;25.320;2023-02-12T15:57:17;124.50;;;56.57;;
20114;SDS011;10218;42.874;25.320;2023-02-12T15:59:50;139.37;;;63.70;;
20114;SDS011;10218;42.874;25.320;2023-02-12T16:02:20;122.13;;;62.10;;
20114;SDS011;10218;42.874;25.320;2023-02-12T16:04:51;101.70;;;53.73;;
20114;SDS011;10218;42.874;25.320;2023-02-12T16:07:18;114.20;;;60.47;;
20114;SDS011;10218;42.874;25.320;2023-02-12T16:09:46;106.53;;;56.07;;
20114;SDS011;10218;42.874;25.320;2023-02-12T16:12:18;110.53;;;56.13;;
20114;SDS011;10218;42.874;25.320;2023-02-12T16:14:53;100.83;;;53.83;;
20114;SDS011;10218;42.874;25.320;2023-02-12T16:17:27;105.83;;;55.33;;
20114;SDS011;10218;42.874;25.320;2023-02-12T16:19:56;106.20;;;57.80;;
20114;SDS011;10218;42.874;25.320;2023-02-12T16:22:58;109.90;;;59.00;;
20114;SDS011;10218;42.874;25.320;2023-02-12T16:25:20;104.10;;;56.37;;
20114;SDS011;10218;42.874;25.320;2023-02-12T16:30:30;113.13;;;58.20;;
20114;SDS011;10218;42.874;25.320;2023-02-12T16:33:00;124.30;;;64.90;;
20114;SDS011;10218;42.874;25.320;2023-02-12T16:35:28;116.20;;;59.67;;
20114;SDS011;10218;42.874;25.320;2023-02-12T16:38:01;119.00;;;62.10;;
20114;SDS011;10218;42.874;25.320;2023-02-12T16:43:47;78.10;;;44.00;;
20114;SDS011;10218;42.874;25.320;2023-02-12T16:46:17;98.67;;;48.50;;
20114;SDS011;10218;42.874;25.320;2023-02-12T16:48:46;92.23;;;49.90;;
20114;SDS011;10218;42.874;25.320;2023-02-12T16:51:26;108.53;;;55.97;;
20114;SDS011;10218;42.874;25.320;2023-02-12T16:54:01;113.40;;;59.43;;
20114;SDS011;10218;42.874;25.320;2023-02-12T16:56:31;128.67;;;63.57;;
20114;SDS011;10218;42.874;25.320;2023-02-12T16:59:03;110.13;;;58.60;;
20114;SDS011;10218;42.874;25.320;2023-02-12T17:01:32;114.23;;;60.07;;
20114;SDS011;10218;42.874;25.320;2023-02-12T17:04:09;123.83;;;63.37;;
20114;SDS011;10218;42.874;25.320;2023-02-12T17:06:42;142.00;;;73.73;;
20114;SDS011;10218;42.874;25.320;2023-02-12T17:09:09;144.23;;;73.80;;
20114;SDS011;10218;42.874;25.320;2023-02-12T17:11:37;137.70;;;72.60;;
20114;SDS011;10218;42.874;25.320;2023-02-12T17:14:04;107.43;;;57.10;;
20114;SDS011;10218;42.874;25.320;2023-02-12T17:16:31;120.13;;;63.80;;
20114;SDS011;10218;42.874;25.320;2023-02-12T17:18:58;123.20;;;66.30;;
20114;SDS011;10218;42.874;25.320;2023-02-12T17:24:04;150.60;;;78.20;;
20114;SDS011;10218;42.874;25.320;2023-02-12T17:26:33;142.97;;;73.03;;
20114;SDS011;10218;42.874;25.320;2023-02-12T17:29:00;209.03;;;100.27;;
20114;SDS011;10218;42.874;25.320;2023-02-12T17:31:31;256.20;;;121.17;;
20114;SDS011;10218;42.874;25.320;2023-02-12T17:34:00;200.10;;;94.27;;
20114;SDS011;10218;42.874;25.320;2023-02-12T17:36:27;225.07;;;107.90;;
20114;SDS011;10218;42.874;25.320;2023-02-12T17:38:54;213.80;;;97.87;;
20114;SDS011;10218;42.874;25.320;2023-02-12T17:41:21;209.30;;;99.60;;
20114;SDS011;10218;42.874;25.320;2023-02-12T17:43:48;218.57;;;107.03;;
20114;SDS011;10218;42.874;25.320;2023-02-12T17:46:19;218.60;;;108.80;;
20114;SDS011;10218;42.874;25.320;2023-02-12T17:48:47;248.03;;;121.10;;
20114;SDS011;10218;42.874;25.320;2023-02-12T17:51:16;214.80;;;105.07;;
20114;SDS011;10218;42.874;25.320;2023-02-12T17:53:43;211.73;;;107.17;;
20114;SDS011;10218;42.874;25.320;2023-02-12T17:56:12;208.93;;;102.60;;